sensor_id;sensor_type;location;lat;lon;timestamp;temperature;humidity
23683;DHT22;24897;53.514;10.482;2023-07-31T00:01:48;15.00;99.90
23683;DHT22;24897;53.514;10.482;2023-07-31T00:04:32;14.80;99.90
23683;DHT22;24897;53.514;10.482;2023-07-31T00:07:16;14.90;99.90
23683;DHT22;24897;53.514;10.482;2023-07-31T00:10:00;14.80;99.90
23683;DHT22;24897;53.514;10.482;2023-07-31T00:12:45;14.90;99.90
23683;DHT22;24897;53.514;10.482;2023-07-31T00:15:29;14.80;99.90
23683;DHT22;24897;53.514;10.482;2023-07-31T00:18:13;14.80;99.90
23683;DHT22;24897;53.514;10.482;2023-07-31T00:20:58;14.80;99.90
23683;DHT22;24897;53.514;10.482;2023-07-31T00:23:42;14.70;99.90
23683;DHT22;24897;53.514;10.482;2023-07-31T00:26:26;14.80;99.90
23683;DHT22;24897;53.514;10.482;2023-07-31T00:29:10;14.80;99.90
23683;DHT22;24897;53.514;10.482;2023-07-31T00:31:54;14.90;99.90
23683;DHT22;24897;53.514;10.482;2023-07-31T00:34:38;14.90;99.90
23683;DHT22;24897;53.514;10.482;2023-07-31T00:37:22;14.90;99.90
23683;DHT22;24897;53.514;10.482;2023-07-31T00:40:07;14.90;99.90
23683;DHT22;24897;53.514;10.482;2023-07-31T00:42:52;14.90;99.90
23683;DHT22;24897;53.514;10.482;2023-07-31T00:45:36;14.90;99.90
23683;DHT22;24897;53.514;10.482;2023-07-31T00:48:20;14.90;99.90
23683;DHT22;24897;53.514;10.482;2023-07-31T00:51:04;15.00;99.90
23683;DHT22;24897;53.514;10.482;2023-07-31T00:53:49;15.00;99.90
23683;DHT22;24897;53.514;10.482;2023-07-31T00:56:33;15.00;99.90
23683;DHT22;24897;53.514;10.482;2023-07-31T00:59:17;15.30;99.90
23683;DHT22;24897;53.514;10.482;2023-07-31T01:02:03;15.00;99.90
23683;DHT22;24897;53.514;10.482;2023-07-31T01:05:03;15.00;99.90
23683;DHT22;24897;53.514;10.482;2023-07-31T01:08:05;15.00;99.90
23683;DHT22;24897;53.514;10.482;2023-07-31T01:10:57;15.00;99.90
23683;DHT22;24897;53.514;10.482;2023-07-31T01:13:44;15.00;99.90
23683;DHT22;24897;53.514;10.482;2023-07-31T01:16:28;15.10;99.90
23683;DHT22;24897;53.514;10.482;2023-07-31T01:19:14;15.10;99.90
23683;DHT22;24897;53.514;10.482;2023-07-31T01:22:23;15.10;99.90
23683;DHT22;24897;53.514;10.482;2023-07-31T01:25:34;15.10;99.90
23683;DHT22;24897;53.514;10.482;2023-07-31T01:28:27;15.10;99.90
23683;DHT22;24897;53.514;10.482;2023-07-31T01:31:18;15.10;99.90
23683;DHT22;24897;53.514;10.482;2023-07-31T01:34:04;15.10;99.90
23683;DHT22;24897;53.514;10.482;2023-07-31T01:36:48;15.10;99.90
23683;DHT22;24897;53.514;10.482;2023-07-31T01:39:32;15.30;99.90
23683;DHT22;24897;53.514;10.482;2023-07-31T01:45:01;15.30;99.90
23683;DHT22;24897;53.514;10.482;2023-07-31T01:47:45;15.10;99.90
23683;DHT22;24897;53.514;10.482;2023-07-31T01:50:29;15.10;99.90
23683;DHT22;24897;53.514;10.482;2023-07-31T01:53:13;14.70;99.90
23683;DHT22;24897;53.514;10.482;2023-07-31T01:55:58;15.10;99.90
23683;DHT22;24897;53.514;10.482;2023-07-31T01:58:42;15.10;99.90
23683;DHT22;24897;53.514;10.482;2023-07-31T02:01:27;15.10;99.90
23683;DHT22;24897;53.514;10.482;2023-07-31T02:04:11;15.10;99.90
23683;DHT22;24897;53.514;10.482;2023-07-31T02:06:54;15.10;99.90
23683;DHT22;24897;53.514;10.482;2023-07-31T02:09:39;15.10;99.90
23683;DHT22;24897;53.514;10.482;2023-07-31T02:12:23;15.10;99.90
23683;DHT22;24897;53.514;10.482;2023-07-31T02:15:07;15.10;99.90
23683;DHT22;24897;53.514;10.482;2023-07-31T02:17:51;15.10;99.90
23683;DHT22;24897;53.514;10.482;2023-07-31T02:20:35;15.10;99.90
23683;DHT22;24897;53.514;10.482;2023-07-31T02:23:19;15.10;99.90
23683;DHT22;24897;53.514;10.482;2023-07-31T02:26:04;15.10;99.90
23683;DHT22;24897;53.514;10.482;2023-07-31T02:28:48;15.10;99.90
23683;DHT22;24897;53.514;10.482;2023-07-31T02:31:32;15.10;99.90
23683;DHT22;24897;53.514;10.482;2023-07-31T02:34:17;15.20;99.90
23683;DHT22;24897;53.514;10.482;2023-07-31T02:37:01;15.20;99.90
23683;DHT22;24897;53.514;10.482;2023-07-31T02:39:45;15.20;99.90
23683;DHT22;24897;53.514;10.482;2023-07-31T02:42:29;15.20;99.90
23683;DHT22;24897;53.514;10.482;2023-07-31T02:45:13;14.20;99.90
23683;DHT22;24897;53.514;10.482;2023-07-31T02:47:57;15.30;99.90
23683;DHT22;24897;53.514;10.482;2023-07-31T02:50:41;15.30;99.90
23683;DHT22;24897;53.514;10.482;2023-07-31T02:53:25;15.30;99.90
23683;DHT22;24897;53.514;10.482;2023-07-31T02:56:09;15.30;99.90
23683;DHT22;24897;53.514;10.482;2023-07-31T02:58:53;15.30;99.90
23683;DHT22;24897;53.514;10.482;2023-07-31T03:01:38;15.50;99.90
23683;DHT22;24897;53.514;10.482;2023-07-31T03:04:22;15.30;99.90
23683;DHT22;24897;53.514;10.482;2023-07-31T03:07:06;15.40;99.90
23683;DHT22;24897;53.514;10.482;2023-07-31T03:09:50;15.40;99.90
23683;DHT22;24897;53.514;10.482;2023-07-31T03:12:35;15.40;99.90
23683;DHT22;24897;53.514;10.482;2023-07-31T03:15:19;15.40;99.90
23683;DHT22;24897;53.514;10.482;2023-07-31T03:18:03;15.40;99.90
23683;DHT22;24897;53.514;10.482;2023-07-31T03:20:47;15.40;99.90
23683;DHT22;24897;53.514;10.482;2023-07-31T03:23:31;15.40;99.90
23683;DHT22;24897;53.514;10.482;2023-07-31T03:26:15;15.40;99.90
23683;DHT22;24897;53.514;10.482;2023-07-31T03:28:59;15.60;99.90
23683;DHT22;24897;53.514;10.482;2023-07-31T03:31:43;15.40;99.90
23683;DHT22;24897;53.514;10.482;2023-07-31T03:34:27;15.40;99.90
23683;DHT22;24897;53.514;10.482;2023-07-31T03:37:11;15.40;99.90
23683;DHT22;24897;53.514;10.482;2023-07-31T03:39:55;15.40;99.90
23683;DHT22;24897;53.514;10.482;2023-07-31T03:42:39;15.50;99.90
23683;DHT22;24897;53.514;10.482;2023-07-31T03:45:24;15.50;99.90
23683;DHT22;24897;53.514;10.482;2023-07-31T03:48:08;15.50;99.90
23683;DHT22;24897;53.514;10.482;2023-07-31T03:50:52;15.50;99.90
23683;DHT22;24897;53.514;10.482;2023-07-31T03:53:37;15.50;99.90
23683;DHT22;24897;53.514;10.482;2023-07-31T03:56:21;15.50;99.90
23683;DHT22;24897;53.514;10.482;2023-07-31T03:59:05;15.50;99.90
23683;DHT22;24897;53.514;10.482;2023-07-31T04:01:49;15.50;99.90
23683;DHT22;24897;53.514;10.482;2023-07-31T04:04:33;15.50;99.90
23683;DHT22;24897;53.514;10.482;2023-07-31T04:07:17;15.50;99.90
23683;DHT22;24897;53.514;10.482;2023-07-31T04:10:01;15.50;99.90
23683;DHT22;24897;53.514;10.482;2023-07-31T04:12:45;15.50;99.90
23683;DHT22;24897;53.514;10.482;2023-07-31T04:15:29;15.40;99.90
23683;DHT22;24897;53.514;10.482;2023-07-31T04:18:13;15.50;99.90
23683;DHT22;24897;53.514;10.482;2023-07-31T04:20:57;15.60;99.90
23683;DHT22;24897;53.514;10.482;2023-07-31T04:23:42;15.60;99.90
23683;DHT22;24897;53.514;10.482;2023-07-31T04:26:26;15.60;99.90
23683;DHT22;24897;53.514;10.482;2023-07-31T04:29:10;15.50;99.90
23683;DHT22;24897;53.514;10.482;2023-07-31T04:31:54;15.60;99.90
23683;DHT22;24897;53.514;10.482;2023-07-31T04:37:23;15.60;99.90
23683;DHT22;24897;53.514;10.482;2023-07-31T04:40:07;15.60;99.90
23683;DHT22;24897;53.514;10.482;2023-07-31T04:42:52;15.60;99.90
23683;DHT22;24897;53.514;10.482;2023-07-31T04:45:36;15.60;99.90
23683;DHT22;24897;53.514;10.482;2023-07-31T04:48:20;15.70;99.90
23683;DHT22;24897;53.514;10.482;2023-07-31T04:51:04;15.70;99.90
23683;DHT22;24897;53.514;10.482;2023-07-31T04:53:48;15.70;99.90
23683;DHT22;24897;53.514;10.482;2023-07-31T04:56:32;15.70;99.90
23683;DHT22;24897;53.514;10.482;2023-07-31T04:59:16;15.70;99.90
23683;DHT22;24897;53.514;10.482;2023-07-31T05:04:45;15.60;99.90
23683;DHT22;24897;53.514;10.482;2023-07-31T05:07:29;15.70;99.90
23683;DHT22;24897;53.514;10.482;2023-07-31T05:10:13;15.70;99.90
23683;DHT22;24897;53.514;10.482;2023-07-31T05:12:57;15.80;99.90
23683;DHT22;24897;53.514;10.482;2023-07-31T05:15:42;15.80;99.90
23683;DHT22;24897;53.514;10.482;2023-07-31T05:18:26;15.70;99.90
23683;DHT22;24897;53.514;10.482;2023-07-31T05:21:10;15.80;99.90
23683;DHT22;24897;53.514;10.482;2023-07-31T05:23:54;16.20;99.90
23683;DHT22;24897;53.514;10.482;2023-07-31T05:26:38;15.80;99.90
23683;DHT22;24897;53.514;10.482;2023-07-31T05:32:07;15.80;99.90
23683;DHT22;24897;53.514;10.482;2023-07-31T05:34:52;15.80;99.90
23683;DHT22;24897;53.514;10.482;2023-07-31T05:37:36;15.50;99.90
23683;DHT22;24897;53.514;10.482;2023-07-31T05:40:21;15.80;99.90
23683;DHT22;24897;53.514;10.482;2023-07-31T05:43:05;15.80;99.90
23683;DHT22;24897;53.514;10.482;2023-07-31T05:45:52;15.80;99.90
23683;DHT22;24897;53.514;10.482;2023-07-31T05:48:36;15.70;99.90
23683;DHT22;24897;53.514;10.482;2023-07-31T05:51:20;15.70;99.90
23683;DHT22;24897;53.514;10.482;2023-07-31T05:54:04;15.80;99.90
23683;DHT22;24897;53.514;10.482;2023-07-31T05:56:48;15.80;99.90
23683;DHT22;24897;53.514;10.482;2023-07-31T05:59:32;15.80;99.90
23683;DHT22;24897;53.514;10.482;2023-07-31T06:02:16;15.80;99.90
23683;DHT22;24897;53.514;10.482;2023-07-31T06:05:00;14.80;99.90
23683;DHT22;24897;53.514;10.482;2023-07-31T06:07:45;16.10;99.90
23683;DHT22;24897;53.514;10.482;2023-07-31T06:10:29;16.00;99.90
23683;DHT22;24897;53.514;10.482;2023-07-31T06:13:13;15.80;99.90
23683;DHT22;24897;53.514;10.482;2023-07-31T06:15:57;15.80;99.90
23683;DHT22;24897;53.514;10.482;2023-07-31T06:21:27;15.80;99.90
23683;DHT22;24897;53.514;10.482;2023-07-31T06:24:11;15.90;99.90
23683;DHT22;24897;53.514;10.482;2023-07-31T06:26:57;16.00;99.90
23683;DHT22;24897;53.514;10.482;2023-07-31T06:29:42;16.00;99.90
23683;DHT22;24897;53.514;10.482;2023-07-31T06:32:26;16.00;99.90
23683;DHT22;24897;53.514;10.482;2023-07-31T06:35:10;15.90;99.90
23683;DHT22;24897;53.514;10.482;2023-07-31T06:37:54;16.00;99.90
23683;DHT22;24897;53.514;10.482;2023-07-31T06:40:38;16.10;99.90
23683;DHT22;24897;53.514;10.482;2023-07-31T06:43:22;16.50;99.90
23683;DHT22;24897;53.514;10.482;2023-07-31T06:46:06;16.20;99.90
23683;DHT22;24897;53.514;10.482;2023-07-31T06:48:50;16.10;99.90
23683;DHT22;24897;53.514;10.482;2023-07-31T06:51:34;16.10;99.90
23683;DHT22;24897;53.514;10.482;2023-07-31T06:54:20;16.20;99.90
23683;DHT22;24897;53.514;10.482;2023-07-31T06:57:04;16.10;99.90
23683;DHT22;24897;53.514;10.482;2023-07-31T06:59:48;16.20;99.90
23683;DHT22;24897;53.514;10.482;2023-07-31T07:02:33;16.20;99.90
23683;DHT22;24897;53.514;10.482;2023-07-31T07:05:17;16.20;99.90
23683;DHT22;24897;53.514;10.482;2023-07-31T07:08:02;16.20;99.90
23683;DHT22;24897;53.514;10.482;2023-07-31T07:10:46;16.30;99.90
23683;DHT22;24897;53.514;10.482;2023-07-31T07:13:31;16.40;99.90
23683;DHT22;24897;53.514;10.482;2023-07-31T07:16:15;16.50;99.90
23683;DHT22;24897;53.514;10.482;2023-07-31T07:18:59;16.60;99.90
23683;DHT22;24897;53.514;10.482;2023-07-31T07:21:43;16.60;99.90
23683;DHT22;24897;53.514;10.482;2023-07-31T07:24:28;16.80;99.90
23683;DHT22;24897;53.514;10.482;2023-07-31T07:27:12;16.80;99.90
23683;DHT22;24897;53.514;10.482;2023-07-31T07:29:56;16.80;99.90
23683;DHT22;24897;53.514;10.482;2023-07-31T07:32:40;16.90;99.90
23683;DHT22;24897;53.514;10.482;2023-07-31T07:35:25;16.80;99.90
23683;DHT22;24897;53.514;10.482;2023-07-31T07:38:09;16.80;99.90
23683;DHT22;24897;53.514;10.482;2023-07-31T07:40:53;16.60;99.90
23683;DHT22;24897;53.514;10.482;2023-07-31T07:43:37;16.60;99.90
23683;DHT22;24897;53.514;10.482;2023-07-31T07:46:21;16.70;99.90
23683;DHT22;24897;53.514;10.482;2023-07-31T07:49:06;16.90;99.90
23683;DHT22;24897;53.514;10.482;2023-07-31T07:51:50;17.00;99.90
23683;DHT22;24897;53.514;10.482;2023-07-31T07:54:34;17.00;99.90
23683;DHT22;24897;53.514;10.482;2023-07-31T07:57:19;17.10;99.90
23683;DHT22;24897;53.514;10.482;2023-07-31T08:00:03;17.10;99.90
23683;DHT22;24897;53.514;10.482;2023-07-31T08:02:47;17.20;99.90
23683;DHT22;24897;53.514;10.482;2023-07-31T08:05:31;17.30;99.90
23683;DHT22;24897;53.514;10.482;2023-07-31T08:08:18;17.30;99.90
23683;DHT22;24897;53.514;10.482;2023-07-31T08:11:02;17.20;99.90
23683;DHT22;24897;53.514;10.482;2023-07-31T08:13:46;17.60;99.90
23683;DHT22;24897;53.514;10.482;2023-07-31T08:16:30;17.90;99.90
23683;DHT22;24897;53.514;10.482;2023-07-31T08:19:14;17.60;99.90
23683;DHT22;24897;53.514;10.482;2023-07-31T08:21:58;17.70;99.90
23683;DHT22;24897;53.514;10.482;2023-07-31T08:24:42;17.70;99.90
23683;DHT22;24897;53.514;10.482;2023-07-31T08:30:12;17.70;99.90
23683;DHT22;24897;53.514;10.482;2023-07-31T08:32:56;17.80;99.90
23683;DHT22;24897;53.514;10.482;2023-07-31T08:35:41;17.80;99.90
23683;DHT22;24897;53.514;10.482;2023-07-31T08:38:26;17.90;99.90
23683;DHT22;24897;53.514;10.482;2023-07-31T08:41:10;17.70;99.90
23683;DHT22;24897;53.514;10.482;2023-07-31T08:43:55;17.70;99.90
23683;DHT22;24897;53.514;10.482;2023-07-31T08:46:41;17.80;99.90
23683;DHT22;24897;53.514;10.482;2023-07-31T08:49:26;17.80;99.90
23683;DHT22;24897;53.514;10.482;2023-07-31T08:52:10;17.70;99.90
23683;DHT22;24897;53.514;10.482;2023-07-31T08:54:54;17.70;99.90
23683;DHT22;24897;53.514;10.482;2023-07-31T08:57:39;17.70;99.90
23683;DHT22;24897;53.514;10.482;2023-07-31T09:00:25;17.70;99.90
23683;DHT22;24897;53.514;10.482;2023-07-31T09:03:23;17.70;99.90
23683;DHT22;24897;53.514;10.482;2023-07-31T09:06:09;17.70;99.90
23683;DHT22;24897;53.514;10.482;2023-07-31T09:08:54;17.70;99.90
23683;DHT22;24897;53.514;10.482;2023-07-31T09:11:39;17.80;99.90
23683;DHT22;24897;53.514;10.482;2023-07-31T09:14:27;17.70;99.90
23683;DHT22;24897;53.514;10.482;2023-07-31T09:17:12;17.70;99.90
23683;DHT22;24897;53.514;10.482;2023-07-31T09:19:56;17.70;99.90
23683;DHT22;24897;53.514;10.482;2023-07-31T09:22:41;17.50;99.90
23683;DHT22;24897;53.514;10.482;2023-07-31T09:25:26;17.60;99.90
23683;DHT22;24897;53.514;10.482;2023-07-31T09:28:11;17.70;99.90
23683;DHT22;24897;53.514;10.482;2023-07-31T09:30:55;17.70;99.90
23683;DHT22;24897;53.514;10.482;2023-07-31T09:33:54;17.70;99.90
23683;DHT22;24897;53.514;10.482;2023-07-31T09:36:41;17.80;99.90
23683;DHT22;24897;53.514;10.482;2023-07-31T09:39:26;17.90;99.90
23683;DHT22;24897;53.514;10.482;2023-07-31T09:42:11;17.90;99.90
23683;DHT22;24897;53.514;10.482;2023-07-31T09:45:09;18.40;99.90
23683;DHT22;24897;53.514;10.482;2023-07-31T09:47:54;18.30;99.90
23683;DHT22;24897;53.514;10.482;2023-07-31T09:50:40;17.90;99.90
23683;DHT22;24897;53.514;10.482;2023-07-31T09:53:29;17.90;99.90
23683;DHT22;24897;53.514;10.482;2023-07-31T09:56:17;17.90;99.90
23683;DHT22;24897;53.514;10.482;2023-07-31T09:59:04;17.80;99.90
23683;DHT22;24897;53.514;10.482;2023-07-31T10:01:49;17.80;99.90
23683;DHT22;24897;53.514;10.482;2023-07-31T10:04:34;17.80;99.90
23683;DHT22;24897;53.514;10.482;2023-07-31T10:07:18;17.70;99.90
23683;DHT22;24897;53.514;10.482;2023-07-31T10:10:05;17.70;99.90
23683;DHT22;24897;53.514;10.482;2023-07-31T10:12:52;17.70;99.90
23683;DHT22;24897;53.514;10.482;2023-07-31T10:15:36;17.60;99.90
23683;DHT22;24897;53.514;10.482;2023-07-31T10:18:21;17.50;99.90
23683;DHT22;24897;53.514;10.482;2023-07-31T10:21:05;17.60;99.90
23683;DHT22;24897;53.514;10.482;2023-07-31T10:23:50;17.50;99.90
23683;DHT22;24897;53.514;10.482;2023-07-31T10:26:35;17.40;99.90
23683;DHT22;24897;53.514;10.482;2023-07-31T10:29:22;17.40;99.90
23683;DHT22;24897;53.514;10.482;2023-07-31T10:32:09;17.40;99.90
23683;DHT22;24897;53.514;10.482;2023-07-31T10:34:56;17.40;99.90
23683;DHT22;24897;53.514;10.482;2023-07-31T10:37:41;17.30;99.90
23683;DHT22;24897;53.514;10.482;2023-07-31T10:40:27;17.20;99.90
23683;DHT22;24897;53.514;10.482;2023-07-31T10:43:24;17.20;99.90
23683;DHT22;24897;53.514;10.482;2023-07-31T10:46:13;17.20;99.90
23683;DHT22;24897;53.514;10.482;2023-07-31T10:48:59;17.20;99.90
23683;DHT22;24897;53.514;10.482;2023-07-31T10:51:44;17.20;99.90
23683;DHT22;24897;53.514;10.482;2023-07-31T10:54:28;17.20;99.90
23683;DHT22;24897;53.514;10.482;2023-07-31T10:57:22;17.20;99.90
23683;DHT22;24897;53.514;10.482;2023-07-31T11:03:08;17.20;99.90
23683;DHT22;24897;53.514;10.482;2023-07-31T11:06:00;17.30;99.90
23683;DHT22;24897;53.514;10.482;2023-07-31T11:08:48;17.30;99.90
23683;DHT22;24897;53.514;10.482;2023-07-31T11:11:33;17.40;99.90
23683;DHT22;24897;53.514;10.482;2023-07-31T11:14:17;17.50;99.90
23683;DHT22;24897;53.514;10.482;2023-07-31T11:17:06;17.60;99.90
23683;DHT22;24897;53.514;10.482;2023-07-31T11:19:51;17.80;99.90
23683;DHT22;24897;53.514;10.482;2023-07-31T11:22:35;18.10;99.90
23683;DHT22;24897;53.514;10.482;2023-07-31T11:25:19;18.30;99.90
23683;DHT22;24897;53.514;10.482;2023-07-31T11:28:05;18.40;99.90
23683;DHT22;24897;53.514;10.482;2023-07-31T11:30:49;18.50;99.90
23683;DHT22;24897;53.514;10.482;2023-07-31T11:33:33;18.40;99.90
23683;DHT22;24897;53.514;10.482;2023-07-31T11:36:19;18.30;99.90
23683;DHT22;24897;53.514;10.482;2023-07-31T11:39:08;18.30;99.90
23683;DHT22;24897;53.514;10.482;2023-07-31T11:41:59;18.30;99.90
23683;DHT22;24897;53.514;10.482;2023-07-31T11:44:43;18.10;99.90
23683;DHT22;24897;53.514;10.482;2023-07-31T11:47:32;18.10;99.90
23683;DHT22;24897;53.514;10.482;2023-07-31T11:50:18;18.10;99.90
23683;DHT22;24897;53.514;10.482;2023-07-31T11:53:07;18.20;99.90
23683;DHT22;24897;53.514;10.482;2023-07-31T11:55:53;18.30;99.90
23683;DHT22;24897;53.514;10.482;2023-07-31T11:58:38;18.20;99.90
23683;DHT22;24897;53.514;10.482;2023-07-31T12:01:23;18.20;99.90
23683;DHT22;24897;53.514;10.482;2023-07-31T12:04:07;18.00;99.90
23683;DHT22;24897;53.514;10.482;2023-07-31T12:06:52;18.10;99.90
23683;DHT22;24897;53.514;10.482;2023-07-31T12:09:37;18.00;99.90
23683;DHT22;24897;53.514;10.482;2023-07-31T12:12:23;18.10;99.90
23683;DHT22;24897;53.514;10.482;2023-07-31T12:15:15;18.10;99.90
23683;DHT22;24897;53.514;10.482;2023-07-31T12:18:00;18.20;99.90
23683;DHT22;24897;53.514;10.482;2023-07-31T12:20:49;18.20;99.90
23683;DHT22;24897;53.514;10.482;2023-07-31T12:23:38;18.40;99.90
23683;DHT22;24897;53.514;10.482;2023-07-31T12:26:22;18.10;99.90
23683;DHT22;24897;53.514;10.482;2023-07-31T12:29:08;18.20;99.90
23683;DHT22;24897;53.514;10.482;2023-07-31T12:31:52;18.20;99.90
23683;DHT22;24897;53.514;10.482;2023-07-31T12:34:42;18.30;99.90
23683;DHT22;24897;53.514;10.482;2023-07-31T12:37:28;18.10;99.90
23683;DHT22;24897;53.514;10.482;2023-07-31T12:40:12;18.20;99.90
23683;DHT22;24897;53.514;10.482;2023-07-31T12:42:57;18.30;99.90
23683;DHT22;24897;53.514;10.482;2023-07-31T12:45:41;18.20;99.90
23683;DHT22;24897;53.514;10.482;2023-07-31T12:48:25;18.20;99.90
23683;DHT22;24897;53.514;10.482;2023-07-31T12:51:09;18.20;99.90
23683;DHT22;24897;53.514;10.482;2023-07-31T12:53:53;18.30;99.90
23683;DHT22;24897;53.514;10.482;2023-07-31T12:56:37;18.50;99.90
23683;DHT22;24897;53.514;10.482;2023-07-31T12:59:21;18.50;99.90
23683;DHT22;24897;53.514;10.482;2023-07-31T13:02:05;18.40;99.90
23683;DHT22;24897;53.514;10.482;2023-07-31T13:04:50;18.30;99.90
23683;DHT22;24897;53.514;10.482;2023-07-31T13:07:34;18.30;99.90
23683;DHT22;24897;53.514;10.482;2023-07-31T13:10:19;18.30;99.90
23683;DHT22;24897;53.514;10.482;2023-07-31T13:13:04;18.30;99.90
23683;DHT22;24897;53.514;10.482;2023-07-31T13:15:48;18.30;99.90
23683;DHT22;24897;53.514;10.482;2023-07-31T13:18:32;18.40;99.90
23683;DHT22;24897;53.514;10.482;2023-07-31T13:21:16;18.40;99.90
23683;DHT22;24897;53.514;10.482;2023-07-31T13:24:00;18.40;99.90
23683;DHT22;24897;53.514;10.482;2023-07-31T13:26:45;18.40;99.90
23683;DHT22;24897;53.514;10.482;2023-07-31T13:29:29;18.30;99.90
23683;DHT22;24897;53.514;10.482;2023-07-31T13:32:15;18.30;99.90
23683;DHT22;24897;53.514;10.482;2023-07-31T13:35:00;18.30;99.90
23683;DHT22;24897;53.514;10.482;2023-07-31T13:37:43;18.40;99.90
23683;DHT22;24897;53.514;10.482;2023-07-31T13:40:28;18.40;99.90
23683;DHT22;24897;53.514;10.482;2023-07-31T13:43:12;18.40;99.90
23683;DHT22;24897;53.514;10.482;2023-07-31T13:45:56;18.40;99.90
23683;DHT22;24897;53.514;10.482;2023-07-31T13:48:40;18.40;99.90
23683;DHT22;24897;53.514;10.482;2023-07-31T13:51:24;18.30;99.90
23683;DHT22;24897;53.514;10.482;2023-07-31T13:54:09;18.30;99.90
23683;DHT22;24897;53.514;10.482;2023-07-31T13:56:56;18.30;99.90
23683;DHT22;24897;53.514;10.482;2023-07-31T13:59:40;18.40;99.90
23683;DHT22;24897;53.514;10.482;2023-07-31T14:02:24;18.50;99.90
23683;DHT22;24897;53.514;10.482;2023-07-31T14:05:09;18.50;99.90
23683;DHT22;24897;53.514;10.482;2023-07-31T14:07:53;18.50;99.90
23683;DHT22;24897;53.514;10.482;2023-07-31T14:10:37;18.40;99.90
23683;DHT22;24897;53.514;10.482;2023-07-31T14:13:21;18.50;99.90
23683;DHT22;24897;53.514;10.482;2023-07-31T14:16:06;18.60;99.90
23683;DHT22;24897;53.514;10.482;2023-07-31T14:18:50;18.60;99.90
23683;DHT22;24897;53.514;10.482;2023-07-31T14:21:34;18.70;99.90
23683;DHT22;24897;53.514;10.482;2023-07-31T14:24:18;18.60;99.90
23683;DHT22;24897;53.514;10.482;2023-07-31T14:27:03;18.50;99.90
23683;DHT22;24897;53.514;10.482;2023-07-31T14:29:47;18.50;99.90
23683;DHT22;24897;53.514;10.482;2023-07-31T14:32:31;18.60;99.90
23683;DHT22;24897;53.514;10.482;2023-07-31T14:35:18;18.60;99.90
23683;DHT22;24897;53.514;10.482;2023-07-31T14:38:02;18.50;99.90
23683;DHT22;24897;53.514;10.482;2023-07-31T14:40:46;18.60;99.90
23683;DHT22;24897;53.514;10.482;2023-07-31T14:43:30;18.60;99.90
23683;DHT22;24897;53.514;10.482;2023-07-31T14:46:14;18.50;99.90
23683;DHT22;24897;53.514;10.482;2023-07-31T14:48:58;18.40;99.90
23683;DHT22;24897;53.514;10.482;2023-07-31T14:51:43;18.40;99.90
23683;DHT22;24897;53.514;10.482;2023-07-31T14:54:27;18.30;99.90
23683;DHT22;24897;53.514;10.482;2023-07-31T14:57:13;18.20;99.90
23683;DHT22;24897;53.514;10.482;2023-07-31T14:59:57;18.10;99.90
23683;DHT22;24897;53.514;10.482;2023-07-31T15:02:41;18.10;99.90
23683;DHT22;24897;53.514;10.482;2023-07-31T15:05:25;18.30;99.90
23683;DHT22;24897;53.514;10.482;2023-07-31T15:08:10;19.80;99.90
23683;DHT22;24897;53.514;10.482;2023-07-31T15:10:54;18.20;99.90
23683;DHT22;24897;53.514;10.482;2023-07-31T15:13:41;18.40;99.90
23683;DHT22;24897;53.514;10.482;2023-07-31T15:16:25;18.20;99.90
23683;DHT22;24897;53.514;10.482;2023-07-31T15:19:09;19.50;99.90
23683;DHT22;24897;53.514;10.482;2023-07-31T15:21:56;18.50;99.90
23683;DHT22;24897;53.514;10.482;2023-07-31T15:24:40;18.80;99.90
23683;DHT22;24897;53.514;10.482;2023-07-31T15:27:25;18.40;99.90
23683;DHT22;24897;53.514;10.482;2023-07-31T15:30:09;18.60;99.90
23683;DHT22;24897;53.514;10.482;2023-07-31T15:32:53;18.10;99.90
23683;DHT22;24897;53.514;10.482;2023-07-31T15:35:38;17.10;99.90
23683;DHT22;24897;53.514;10.482;2023-07-31T15:41:07;18.20;99.90
23683;DHT22;24897;53.514;10.482;2023-07-31T15:43:51;19.60;99.90
23683;DHT22;24897;53.514;10.482;2023-07-31T15:46:35;18.20;99.90
23683;DHT22;24897;53.514;10.482;2023-07-31T15:49:20;19.90;99.90
23683;DHT22;24897;53.514;10.482;2023-07-31T15:52:04;19.60;99.90
23683;DHT22;24897;53.514;10.482;2023-07-31T15:54:49;18.00;99.90
23683;DHT22;24897;53.514;10.482;2023-07-31T15:57:35;18.10;99.90
23683;DHT22;24897;53.514;10.482;2023-07-31T16:00:19;18.30;99.90
23683;DHT22;24897;53.514;10.482;2023-07-31T16:03:04;18.10;99.90
23683;DHT22;24897;53.514;10.482;2023-07-31T16:06:06;18.00;99.90
23683;DHT22;24897;53.514;10.482;2023-07-31T16:08:51;18.10;99.90
23683;DHT22;24897;53.514;10.482;2023-07-31T16:11:41;18.00;99.90
23683;DHT22;24897;53.514;10.482;2023-07-31T16:14:29;18.10;99.90
23683;DHT22;24897;53.514;10.482;2023-07-31T16:17:14;18.30;99.90
23683;DHT22;24897;53.514;10.482;2023-07-31T16:19:59;18.10;99.90
23683;DHT22;24897;53.514;10.482;2023-07-31T16:22:43;18.10;99.90
23683;DHT22;24897;53.514;10.482;2023-07-31T16:25:27;18.10;99.90
23683;DHT22;24897;53.514;10.482;2023-07-31T16:28:11;18.00;99.90
23683;DHT22;24897;53.514;10.482;2023-07-31T16:30:55;18.00;99.90
23683;DHT22;24897;53.514;10.482;2023-07-31T16:33:39;18.00;99.90
23683;DHT22;24897;53.514;10.482;2023-07-31T16:41:53;18.00;99.90
23683;DHT22;24897;53.514;10.482;2023-07-31T16:44:37;18.00;99.90
23683;DHT22;24897;53.514;10.482;2023-07-31T16:47:21;17.90;99.90
23683;DHT22;24897;53.514;10.482;2023-07-31T16:50:07;17.90;99.90
23683;DHT22;24897;53.514;10.482;2023-07-31T16:52:51;18.10;99.90
23683;DHT22;24897;53.514;10.482;2023-07-31T16:55:35;18.40;99.90
23683;DHT22;24897;53.514;10.482;2023-07-31T16:58:20;17.90;99.90
23683;DHT22;24897;53.514;10.482;2023-07-31T17:03:50;17.90;99.90
23683;DHT22;24897;53.514;10.482;2023-07-31T17:06:34;19.70;99.90
23683;DHT22;24897;53.514;10.482;2023-07-31T17:09:18;18.00;99.90
23683;DHT22;24897;53.514;10.482;2023-07-31T17:12:03;18.20;99.90
23683;DHT22;24897;53.514;10.482;2023-07-31T17:14:47;17.90;99.90
23683;DHT22;24897;53.514;10.482;2023-07-31T17:17:31;18.00;99.90
23683;DHT22;24897;53.514;10.482;2023-07-31T17:20:15;17.90;99.90
23683;DHT22;24897;53.514;10.482;2023-07-31T17:22:59;18.00;99.90
23683;DHT22;24897;53.514;10.482;2023-07-31T17:25:44;17.90;99.90
23683;DHT22;24897;53.514;10.482;2023-07-31T17:28:28;18.00;99.90
23683;DHT22;24897;53.514;10.482;2023-07-31T17:31:13;18.00;99.90
23683;DHT22;24897;53.514;10.482;2023-07-31T17:33:57;18.10;99.90
23683;DHT22;24897;53.514;10.482;2023-07-31T17:36:41;18.00;99.90